createdAt,value
2023-03-01T00:00:51.475Z,13.42
2023-03-01T00:01:51.459Z,13.42
2023-03-01T00:02:51.457Z,13.49
2023-03-01T00:03:51.508Z,13.46
2023-03-01T00:04:51.441Z,13.51
2023-03-01T00:05:51.429Z,13.48
2023-03-01T00:06:51.423Z,13.48
2023-03-01T00:07:51.421Z,13.51
2023-03-01T00:08:51.422Z,13.49
2023-03-01T00:09:51.456Z,13.51
2023-03-01T00:10:51.477Z,13.51
2023-03-01T00:11:51.412Z,13.51
2023-03-01T00:12:51.395Z,13.46
2023-03-01T00:13:51.361Z,13.49
2023-03-01T00:14:51.363Z,13.54
2023-03-01T00:15:51.392Z,13.55
2023-03-01T00:16:51.414Z,13.52
2023-03-01T00:17:51.357Z,13.51
2023-03-01T00:18:51.366Z,13.54
2023-03-01T00:19:51.345Z,13.52
2023-03-01T00:20:51.344Z,13.51
2023-03-01T00:21:51.317Z,13.55
2023-03-01T00:22:51.342Z,13.48
2023-03-01T00:23:51.322Z,13.51
2023-03-01T00:24:51.321Z,13.54
2023-03-01T00:25:51.292Z,13.54
2023-03-01T00:26:51.296Z,13.57
2023-03-01T00:27:51.292Z,13.51
2023-03-01T00:28:51.266Z,13.55
2023-03-01T00:29:51.259Z,13.54
2023-03-01T00:30:51.344Z,13.57
2023-03-01T00:31:51.290Z,13.49
2023-03-01T00:32:51.265Z,13.57
2023-03-01T00:33:51.242Z,13.51
2023-03-01T00:34:51.248Z,13.57
2023-03-01T00:35:51.262Z,13.52
2023-03-01T00:36:51.217Z,13.54
2023-03-01T00:37:51.219Z,13.59
2023-03-01T00:38:51.204Z,13.52
2023-03-01T00:39:51.214Z,13.49
2023-03-01T00:40:51.224Z,13.46
2023-03-01T00:41:51.195Z,13.54
2023-03-01T00:42:51.182Z,13.42
2023-03-01T00:43:51.212Z,13.62
2023-03-01T00:44:51.183Z,13.59
2023-03-01T00:45:51.208Z,13.51
2023-03-01T00:46:51.159Z,13.57
2023-03-01T00:47:51.147Z,13.54
2023-03-01T00:48:51.171Z,13.55
2023-03-01T00:49:51.146Z,13.60
2023-03-01T00:50:51.149Z,13.60
2023-03-01T00:51:51.115Z,13.57
2023-03-01T00:52:51.113Z,13.55
2023-03-01T00:53:51.114Z,13.57
2023-03-01T00:54:51.112Z,13.54
2023-03-01T00:55:51.083Z,13.59
2023-03-01T00:56:51.110Z,13.57
2023-03-01T00:57:51.086Z,13.55
2023-03-01T00:58:51.081Z,13.62
2023-03-01T00:59:51.142Z,13.57
2023-03-01T01:00:51.067Z,13.59
2023-03-01T01:01:51.139Z,13.54
2023-03-01T01:02:51.113Z,13.60
2023-03-01T01:03:51.036Z,13.54
2023-03-01T01:04:51.028Z,13.55
2023-03-01T01:05:51.016Z,13.62
2023-03-01T01:06:51.041Z,13.59
2023-03-01T01:07:51.035Z,13.55
2023-03-01T01:08:51.018Z,13.59
2023-03-01T01:09:51.002Z,13.55
2023-03-01T01:10:51.005Z,13.55
2023-03-01T01:11:50.994Z,13.54
2023-03-01T01:12:50.999Z,13.49
2023-03-01T01:13:50.963Z,13.59
2023-03-01T01:14:50.984Z,13.57
2023-03-01T01:15:51.013Z,13.59
2023-03-01T01:16:50.967Z,13.55
2023-03-01T01:17:50.941Z,13.59
2023-03-01T01:18:50.948Z,13.54
2023-03-01T01:19:50.921Z,13.59
2023-03-01T01:20:50.921Z,13.57
2023-03-01T01:21:50.913Z,13.59
2023-03-01T01:22:50.917Z,13.55
2023-03-01T01:23:50.924Z,13.57
2023-03-01T01:24:50.910Z,13.55
2023-03-01T01:25:50.880Z,13.52
2023-03-01T01:26:50.891Z,13.55
2023-03-01T01:27:50.878Z,13.54
2023-03-01T01:28:50.871Z,13.52
2023-03-01T01:29:50.870Z,13.57
2023-03-01T01:30:50.889Z,13.59
2023-03-01T01:31:50.952Z,13.54
2023-03-01T01:32:50.836Z,13.54
2023-03-01T01:33:50.845Z,13.54
2023-03-01T01:34:50.837Z,13.54
2023-03-01T01:35:50.909Z,13.60
2023-03-01T01:36:50.824Z,13.52
2023-03-01T01:37:50.812Z,13.54
2023-03-01T01:38:50.813Z,13.59
2023-03-01T01:39:50.801Z,13.54
2023-03-01T01:40:50.788Z,13.54
2023-03-01T01:41:50.789Z,13.59
2023-03-01T01:42:50.769Z,13.51
2023-03-01T01:43:50.796Z,13.54
2023-03-01T01:44:50.752Z,13.52
2023-03-01T01:45:50.761Z,13.54
2023-03-01T01:46:50.836Z,13.55
2023-03-01T01:47:50.755Z,13.51
2023-03-01T01:48:50.746Z,13.54
2023-03-01T01:49:50.732Z,13.52
2023-03-01T01:50:50.733Z,13.51
2023-03-01T01:51:50.716Z,13.54
2023-03-01T01:52:50.716Z,13.52
2023-03-01T01:53:50.702Z,13.57
2023-03-01T01:54:50.683Z,13.44
2023-03-01T01:55:50.691Z,13.49
2023-03-01T01:56:50.675Z,13.51
2023-03-01T01:57:50.659Z,13.51
2023-03-01T01:58:50.658Z,13.54
2023-03-01T01:59:50.671Z,13.52
2023-03-01T02:01:30.052Z,13.54
2023-03-01T02:02:30.177Z,13.49
2023-03-01T02:03:30.228Z,13.49
2023-03-01T02:04:30.010Z,13.48
2023-03-01T02:05:30.008Z,13.52
2023-03-01T02:06:30.457Z,13.45
2023-03-01T02:07:30.007Z,13.48
2023-03-01T02:08:29.996Z,13.51
2023-03-01T02:09:29.993Z,13.54
2023-03-01T02:10:29.993Z,13.54
2023-03-01T02:11:29.977Z,13.57
2023-03-01T02:12:29.969Z,13.54
2023-03-01T02:13:29.974Z,13.52
2023-03-01T02:14:29.954Z,13.51
2023-03-01T02:15:29.967Z,13.54
2023-03-01T02:16:30.425Z,13.46
2023-03-01T02:17:29.930Z,13.51
2023-03-01T02:18:29.924Z,13.55
2023-03-01T02:19:29.934Z,13.52
2023-03-01T02:20:29.913Z,13.63
2023-03-01T02:21:29.912Z,13.59
2023-03-01T02:22:29.980Z,13.59
2023-03-01T02:23:29.922Z,13.55
2023-03-01T02:24:29.878Z,13.54
2023-03-01T02:25:29.881Z,13.52
2023-03-01T02:26:30.212Z,13.55
2023-03-01T02:27:29.855Z,13.62
2023-03-01T02:28:29.856Z,13.57
2023-03-01T02:29:29.862Z,13.55
2023-03-01T02:30:29.829Z,13.54
2023-03-01T02:31:29.965Z,13.59
2023-03-01T02:32:29.826Z,13.55
2023-03-01T02:33:29.835Z,13.59
2023-03-01T02:34:29.804Z,13.54
2023-03-01T02:35:29.852Z,13.52
2023-03-01T02:36:30.229Z,13.55
2023-03-01T02:37:29.809Z,13.59
2023-03-01T02:38:29.792Z,13.60
2023-03-01T02:39:29.793Z,13.62
2023-03-01T02:40:29.791Z,13.52
2023-03-01T02:41:29.771Z,13.54
2023-03-01T02:42:29.750Z,13.60
2023-03-01T02:43:29.752Z,13.62
2023-03-01T02:44:29.744Z,13.51
2023-03-01T02:45:29.747Z,13.55
2023-03-01T02:46:30.154Z,13.55
2023-03-01T02:47:29.724Z,13.57
2023-03-01T02:48:29.714Z,13.59
2023-03-01T02:49:29.711Z,13.55
2023-03-01T02:50:29.699Z,13.57
2023-03-01T02:51:29.734Z,13.54
2023-03-01T02:52:29.711Z,13.57
2023-03-01T02:53:29.686Z,13.54
2023-03-01T02:54:29.675Z,13.55
2023-03-01T02:55:29.679Z,13.54
2023-03-01T02:56:30.019Z,13.52
2023-03-01T02:57:29.654Z,13.51
2023-03-01T02:58:29.668Z,13.51
2023-03-01T02:59:29.663Z,13.54
2023-03-01T03:00:29.670Z,13.51
2023-03-01T03:03:07.140Z,13.54
2023-03-01T03:04:07.131Z,13.51
2023-03-01T03:05:07.100Z,13.51
2023-03-01T03:06:07.078Z,13.54
2023-03-01T03:07:07.182Z,13.49
2023-03-01T03:08:07.132Z,13.54
2023-03-01T03:09:07.063Z,13.52
2023-03-01T03:10:07.044Z,13.54
2023-03-01T03:11:07.069Z,13.48
2023-03-01T03:12:07.067Z,13.49
2023-03-01T03:13:07.092Z,13.51
2023-03-01T03:14:07.021Z,13.49
2023-03-01T03:15:07.025Z,13.51
2023-03-01T03:16:07.042Z,13.51
2023-03-01T03:17:07.010Z,13.49
2023-03-01T03:18:06.993Z,13.48
2023-03-01T03:19:06.988Z,13.51
2023-03-01T03:20:06.992Z,13.52
2023-03-01T03:21:06.978Z,13.52
2023-03-01T03:22:06.964Z,13.49
2023-03-01T03:23:07.022Z,13.48
2023-03-01T03:24:06.952Z,13.55
2023-03-01T03:25:06.973Z,13.48
2023-03-01T03:26:06.951Z,13.54
2023-03-01T03:27:06.933Z,13.51
2023-03-01T03:28:06.924Z,13.46
2023-03-01T03:29:06.919Z,13.49
2023-03-01T03:30:06.922Z,13.46
2023-03-01T03:31:06.911Z,13.52
2023-03-01T03:32:07.008Z,13.51
2023-03-01T03:33:06.904Z,13.48
2023-03-01T03:34:06.888Z,13.49
2023-03-01T03:35:06.869Z,13.49
2023-03-01T03:36:06.895Z,13.54
2023-03-01T03:37:06.881Z,13.52
2023-03-01T03:38:06.859Z,13.51
2023-03-01T03:39:06.876Z,13.51
2023-03-01T03:40:06.837Z,13.49
2023-03-01T03:41:06.827Z,13.51
2023-03-01T03:42:06.847Z,13.54
2023-03-01T03:43:06.811Z,13.54
2023-03-01T03:44:06.839Z,13.54
2023-03-01T03:45:06.804Z,13.46
2023-03-01T03:46:07.039Z,13.54
2023-03-01T03:47:06.800Z,13.51
2023-03-01T03:48:06.791Z,13.49
2023-03-01T03:49:06.790Z,13.51
2023-03-01T03:50:06.785Z,13.54
2023-03-01T03:51:06.762Z,13.54
2023-03-01T03:52:06.753Z,13.55
2023-03-01T03:53:06.758Z,13.46
2023-03-01T03:54:06.752Z,13.44
2023-03-01T03:55:06.759Z,13.51
2023-03-01T03:56:06.758Z,13.52
2023-03-01T03:57:06.721Z,13.51
2023-03-01T03:58:06.729Z,13.54
2023-03-01T03:59:06.705Z,13.52
2023-03-01T04:00:06.722Z,13.52
2023-03-01T04:01:06.698Z,13.54
2023-03-01T04:02:06.687Z,13.54
2023-03-01T04:03:06.703Z,13.52
2023-03-01T04:04:06.694Z,13.55
2023-03-01T04:05:06.664Z,13.52
2023-03-01T04:06:06.664Z,13.55
2023-03-01T04:07:06.668Z,13.46
2023-03-01T04:08:06.647Z,13.52
2023-03-01T04:09:06.635Z,13.55
2023-03-01T04:10:06.662Z,13.46
2023-03-01T04:11:06.654Z,13.57
2023-03-01T04:12:06.631Z,13.52
2023-03-01T04:13:06.603Z,13.57
2023-03-01T04:14:06.603Z,13.52
2023-03-01T04:15:06.608Z,13.46
2023-03-01T04:16:06.648Z,13.51
2023-03-01T04:17:06.576Z,13.49
2023-03-01T04:18:06.587Z,13.48
2023-03-01T04:19:06.585Z,13.46
2023-03-01T04:20:06.571Z,13.51
2023-03-01T04:21:06.567Z,13.49
2023-03-01T04:22:06.577Z,13.48
2023-03-01T04:23:06.580Z,13.49
2023-03-01T04:24:06.545Z,13.48
2023-03-01T04:25:06.530Z,13.48
2023-03-01T04:26:06.569Z,13.42
2023-03-01T04:27:06.548Z,13.45
2023-03-01T04:28:06.522Z,13.45
2023-03-01T04:29:06.508Z,13.49
2023-03-01T04:30:06.502Z,13.48
2023-03-01T04:31:07.820Z,13.48
2023-03-01T04:32:06.624Z,13.45
2023-03-01T04:33:06.471Z,13.51
2023-03-01T04:34:06.507Z,13.51
2023-03-01T04:35:06.459Z,13.44
2023-03-01T04:36:06.610Z,13.46
2023-03-01T04:37:06.453Z,13.42
2023-03-01T04:38:06.444Z,13.42
2023-03-01T04:39:06.440Z,13.48
2023-03-01T04:40:06.426Z,13.42
2023-03-01T04:41:06.415Z,13.52
2023-03-01T04:42:06.409Z,13.42
2023-03-01T04:43:06.416Z,13.48
2023-03-01T04:44:06.411Z,13.48
2023-03-01T04:45:06.403Z,13.42
2023-03-01T04:46:06.584Z,13.48
2023-03-01T04:47:06.371Z,13.42
2023-03-01T04:48:06.383Z,13.46
2023-03-01T04:49:06.362Z,13.44
2023-03-01T04:50:06.360Z,13.48
2023-03-01T04:51:06.358Z,13.48
2023-03-01T04:52:06.358Z,13.44
2023-03-01T04:53:06.372Z,13.38
2023-03-01T04:54:06.371Z,13.45
2023-03-01T04:55:06.321Z,13.46
2023-03-01T04:56:06.331Z,13.38
2023-03-01T04:57:06.314Z,13.42
2023-03-01T04:58:06.304Z,13.48
2023-03-01T04:59:06.305Z,13.51
2023-03-01T05:00:06.301Z,13.42
2023-03-01T05:01:06.273Z,13.48
2023-03-01T05:02:06.275Z,13.46
2023-03-01T05:03:06.339Z,13.46
2023-03-01T05:04:06.347Z,13.44
2023-03-01T05:05:06.249Z,13.44
2023-03-01T05:06:06.248Z,13.46
2023-03-01T05:07:06.248Z,13.36
2023-03-01T05:08:06.243Z,13.49
2023-03-01T05:09:06.240Z,13.36
2023-03-01T05:10:06.225Z,13.44
2023-03-01T05:11:06.221Z,13.46
2023-03-01T05:12:06.213Z,13.46
2023-03-01T05:13:06.201Z,13.41
2023-03-01T05:14:06.199Z,13.39
2023-03-01T05:15:06.216Z,13.44
2023-03-01T05:16:06.253Z,13.42
2023-03-01T05:17:06.205Z,13.45
2023-03-01T05:18:06.170Z,13.38
2023-03-01T05:19:06.176Z,13.30
2023-03-01T05:20:06.144Z,13.41
2023-03-01T05:21:06.146Z,13.39
2023-03-01T05:22:06.141Z,13.26
2023-03-01T05:23:06.377Z,13.45
2023-03-01T05:24:06.145Z,13.41
2023-03-01T05:25:06.127Z,13.33
2023-03-01T05:26:07.568Z,13.36
2023-03-01T05:27:06.094Z,13.30
2023-03-01T05:28:06.097Z,13.45
2023-03-01T05:29:06.075Z,13.33
2023-03-01T05:30:06.075Z,13.30
2023-03-01T05:31:06.181Z,13.28
2023-03-01T05:32:06.127Z,13.29
2023-03-01T05:33:06.063Z,13.28
2023-03-01T05:34:06.071Z,13.30
2023-03-01T05:35:06.065Z,13.44
2023-03-01T05:36:06.047Z,13.36
2023-03-01T05:37:06.033Z,13.38
2023-03-01T05:38:06.044Z,13.33
2023-03-01T05:39:06.020Z,13.42
2023-03-01T05:40:06.019Z,13.33
2023-03-01T05:41:06.013Z,13.42
2023-03-01T05:42:06.006Z,13.45
2023-03-01T05:43:05.993Z,13.52
2023-03-01T05:44:06.003Z,13.51
2023-03-01T05:45:05.987Z,13.51
2023-03-01T05:46:06.057Z,13.57
2023-03-01T05:47:05.974Z,13.64
2023-03-01T05:48:05.962Z,13.67
2023-03-01T05:49:05.949Z,13.71
2023-03-01T05:50:05.963Z,13.75
2023-03-01T05:51:05.924Z,13.73
2023-03-01T05:52:05.962Z,13.71
2023-03-01T05:53:05.919Z,13.75
2023-03-01T05:54:05.907Z,13.73
2023-03-01T05:55:05.920Z,13.79
2023-03-01T05:56:05.914Z,13.89
2023-03-01T05:57:05.898Z,13.88
2023-03-01T05:58:05.905Z,13.85
2023-03-01T05:59:05.881Z,13.92
2023-03-01T06:00:05.877Z,13.97
2023-03-01T06:01:05.875Z,14.02
2023-03-01T06:02:05.906Z,14.07
2023-03-01T06:03:05.884Z,14.12
2023-03-01T06:04:05.879Z,14.18
2023-03-01T06:05:05.987Z,14.20
2023-03-01T06:06:05.852Z,14.21
2023-03-01T06:07:05.838Z,14.22
2023-03-01T06:08:05.843Z,14.21
2023-03-01T06:09:05.827Z,14.22
2023-03-01T06:10:05.824Z,14.24
2023-03-01T06:11:05.824Z,14.33
2023-03-01T06:12:05.802Z,14.36
2023-03-01T06:13:05.811Z,14.32
2023-03-01T06:14:05.793Z,14.43
2023-03-01T06:15:05.802Z,14.42
2023-03-01T06:16:05.814Z,14.47
2023-03-01T06:17:05.763Z,14.45
2023-03-01T06:18:05.772Z,14.43
2023-03-01T06:19:05.795Z,14.47
2023-03-01T06:20:05.750Z,14.45
2023-03-01T06:21:05.754Z,14.61
2023-03-01T06:22:05.738Z,14.69
2023-03-01T06:23:05.740Z,14.62
2023-03-01T06:24:05.723Z,14.65
2023-03-01T06:25:05.708Z,14.70
2023-03-01T06:26:05.711Z,14.80
2023-03-01T06:27:05.715Z,14.75
2023-03-01T06:28:05.737Z,14.80
2023-03-01T06:29:05.702Z,14.89
2023-03-01T06:30:05.705Z,14.91
2023-03-01T06:31:05.743Z,14.94
2023-03-01T06:32:05.775Z,15.02
2023-03-01T06:33:05.670Z,15.02
2023-03-01T06:34:05.666Z,14.94
2023-03-01T06:35:05.685Z,14.98
2023-03-01T06:36:05.685Z,14.99
2023-03-01T06:37:05.641Z,15.10
2023-03-01T06:38:05.648Z,15.10
2023-03-01T06:39:05.665Z,15.09
2023-03-01T06:40:05.651Z,15.06
2023-03-01T06:41:05.631Z,15.14
2023-03-01T06:42:05.616Z,15.07
2023-03-01T06:43:05.629Z,15.17
2023-03-01T06:44:05.636Z,15.07
2023-03-01T06:45:05.608Z,15.14
2023-03-01T06:46:05.600Z,15.16
2023-03-01T06:47:05.594Z,15.13
2023-03-01T06:48:05.610Z,15.20
2023-03-01T06:49:05.719Z,15.19
2023-03-01T06:50:05.598Z,15.13
2023-03-01T06:51:05.606Z,15.13
2023-03-01T06:52:05.595Z,15.16
2023-03-01T06:53:05.566Z,15.17
2023-03-01T06:54:05.574Z,15.09
2023-03-01T06:55:05.551Z,15.17
2023-03-01T06:56:05.560Z,15.02
2023-03-01T06:57:05.526Z,15.16
2023-03-01T06:58:05.592Z,15.03
2023-03-01T06:59:05.522Z,15.07
2023-03-01T07:00:05.532Z,15.03
2023-03-01T07:01:06.463Z,15.13
2023-03-01T07:02:05.516Z,15.09
2023-03-01T07:03:05.546Z,15.07
2023-03-01T07:04:05.520Z,15.10
2023-03-01T07:05:05.496Z,15.14
2023-03-01T07:06:05.496Z,14.94
2023-03-01T07:07:05.495Z,15.01
2023-03-01T07:08:05.502Z,15.01
2023-03-01T07:09:05.473Z,15.06
2023-03-01T07:10:05.471Z,15.01
2023-03-01T07:11:05.461Z,14.98
2023-03-01T07:12:05.466Z,14.98
2023-03-01T07:13:05.469Z,15.07
2023-03-01T07:14:05.441Z,15.06
2023-03-01T07:15:05.449Z,14.94
2023-03-01T07:16:05.431Z,15.03
2023-03-01T07:17:05.440Z,15.01
2023-03-01T07:18:05.417Z,14.95
2023-03-01T07:19:05.408Z,14.84
2023-03-01T07:20:05.421Z,14.92
2023-03-01T07:21:05.415Z,14.95
2023-03-01T07:22:05.461Z,14.89
2023-03-01T07:23:05.406Z,14.88
2023-03-01T07:24:05.386Z,14.88
2023-03-01T07:25:05.459Z,14.94
2023-03-01T07:26:05.373Z,14.89
2023-03-01T07:27:05.367Z,14.86
2023-03-01T07:28:05.351Z,14.83
2023-03-01T07:29:05.368Z,14.86
2023-03-01T07:30:05.338Z,14.78
2023-03-01T07:31:05.350Z,14.78
2023-03-01T07:32:05.477Z,14.84
2023-03-01T07:33:05.528Z,14.75
2023-03-01T07:34:05.362Z,14.77
2023-03-01T07:35:05.320Z,14.83
2023-03-01T07:36:05.358Z,14.80
2023-03-01T07:37:05.339Z,14.78
2023-03-01T07:38:05.340Z,14.81
2023-03-01T07:39:05.383Z,14.80
2023-03-01T07:40:05.295Z,14.75
2023-03-01T07:41:05.297Z,14.81
2023-03-01T07:42:05.286Z,14.77
2023-03-01T07:43:05.288Z,14.72
2023-03-01T07:44:05.280Z,14.70
2023-03-01T07:45:05.260Z,14.65
2023-03-01T07:46:05.297Z,14.64
2023-03-01T07:47:05.261Z,14.70
2023-03-01T07:48:05.250Z,14.68
2023-03-01T07:49:05.251Z,14.65
2023-03-01T07:50:05.232Z,14.70
2023-03-01T07:51:05.226Z,14.68
2023-03-01T07:52:05.245Z,14.64
2023-03-01T07:53:05.225Z,14.60
2023-03-01T07:54:05.226Z,14.57
2023-03-01T07:55:05.237Z,14.64
2023-03-01T07:56:05.201Z,14.58
2023-03-01T07:57:05.203Z,14.57
2023-03-01T07:58:05.189Z,14.57
2023-03-01T07:59:05.188Z,14.61
2023-03-01T08:00:05.160Z,14.54
2023-03-01T08:01:05.197Z,14.54
2023-03-01T08:02:05.208Z,14.50
2023-03-01T08:03:05.315Z,14.54
2023-03-01T08:04:05.141Z,14.46
2023-03-01T08:05:05.168Z,14.47
2023-03-01T08:06:05.124Z,14.46
2023-03-01T08:07:05.146Z,14.47
2023-03-01T08:08:05.124Z,14.46
2023-03-01T08:09:05.108Z,14.47
2023-03-01T08:10:05.115Z,14.46
2023-03-01T08:11:05.139Z,14.50
2023-03-01T08:12:05.100Z,14.47
2023-03-01T08:13:05.097Z,14.46
2023-03-01T08:14:05.097Z,14.50
2023-03-01T08:15:05.087Z,14.47
2023-03-01T08:16:05.157Z,14.39
2023-03-01T08:17:05.091Z,14.35
2023-03-01T08:18:05.062Z,14.37
2023-03-01T08:19:05.045Z,14.39
2023-03-01T08:20:05.047Z,14.39
2023-03-01T08:21:05.038Z,14.45
2023-03-01T08:22:05.020Z,14.39
2023-03-01T08:23:05.029Z,14.32
2023-03-01T08:24:05.020Z,14.43
2023-03-01T08:25:05.042Z,14.37
2023-03-01T08:26:04.996Z,14.36
2023-03-01T08:27:05.066Z,14.35
2023-03-01T08:28:04.998Z,14.33
2023-03-01T08:29:04.998Z,14.32
2023-03-01T08:30:04.989Z,14.35
2023-03-01T08:31:04.979Z,14.32
2023-03-01T08:32:05.084Z,14.27
2023-03-01T08:33:04.972Z,14.35
2023-03-01T08:34:04.958Z,14.24
2023-03-01T08:35:05.033Z,14.37
2023-03-01T08:36:04.937Z,14.33
2023-03-01T08:37:04.946Z,14.29
2023-03-01T08:38:04.938Z,14.32
2023-03-01T08:39:04.947Z,14.27
2023-03-01T08:40:04.920Z,14.21
2023-03-01T08:41:04.944Z,14.14
2023-03-01T08:42:04.915Z,14.22
2023-03-01T08:43:04.914Z,14.27
2023-03-01T08:44:04.879Z,14.18
2023-03-01T08:45:04.897Z,14.22
2023-03-01T08:46:04.930Z,14.24
2023-03-01T08:47:04.868Z,14.29
2023-03-01T08:48:04.870Z,14.27
2023-03-01T08:49:04.852Z,14.20
2023-03-01T08:50:04.857Z,14.18
2023-03-01T08:51:04.876Z,14.18
2023-03-01T08:52:04.832Z,14.15
2023-03-01T08:53:04.825Z,14.15
2023-03-01T08:54:04.827Z,14.15
2023-03-01T08:55:04.821Z,14.18
2023-03-01T08:56:04.804Z,14.18
2023-03-01T08:57:04.801Z,14.25
2023-03-01T08:58:04.798Z,14.15
2023-03-01T08:59:04.830Z,14.18
2023-03-01T09:00:04.793Z,14.15
2023-03-01T09:01:04.778Z,14.10
2023-03-01T09:02:04.816Z,14.22
2023-03-01T09:03:04.771Z,14.15
2023-03-01T09:04:04.769Z,14.15
2023-03-01T09:05:04.758Z,14.15
2023-03-01T09:06:04.744Z,14.14
2023-03-01T09:07:04.764Z,14.18
2023-03-01T09:08:04.815Z,14.22
2023-03-01T09:09:04.749Z,14.20
2023-03-01T09:10:04.724Z,14.14
2023-03-01T09:11:04.744Z,14.12
2023-03-01T09:12:04.720Z,14.18
2023-03-01T09:13:04.705Z,14.18
2023-03-01T09:14:04.712Z,14.17
2023-03-01T09:15:04.724Z,14.17
2023-03-01T09:16:04.694Z,14.15
2023-03-01T09:17:04.759Z,14.17
2023-03-01T09:18:04.687Z,14.14
2023-03-01T09:19:04.669Z,14.09
2023-03-01T09:20:04.662Z,14.15
2023-03-01T09:21:04.677Z,14.10
2023-03-01T09:22:04.674Z,14.14
2023-03-01T09:23:04.674Z,14.07
2023-03-01T09:24:04.633Z,14.10
2023-03-01T09:25:04.630Z,14.14
2023-03-01T09:26:04.641Z,14.14
2023-03-01T09:27:04.621Z,14.06
2023-03-01T09:28:04.645Z,14.10
2023-03-01T09:29:04.605Z,14.14
2023-03-01T09:30:04.590Z,14.07
2023-03-01T09:31:04.765Z,14.09
2023-03-01T09:32:04.645Z,14.09
2023-03-01T09:33:04.593Z,14.12
2023-03-01T09:34:04.569Z,14.10
2023-03-01T09:35:04.589Z,14.12
2023-03-01T09:36:04.702Z,14.12
2023-03-01T09:37:04.570Z,14.07
2023-03-01T09:38:04.562Z,14.12
2023-03-01T09:39:04.553Z,14.15
2023-03-01T09:40:04.543Z,14.15
2023-03-01T09:41:04.531Z,14.12
2023-03-01T09:42:04.536Z,14.15
2023-03-01T09:43:04.514Z,14.09
2023-03-01T09:44:04.520Z,14.06
2023-03-01T09:45:04.546Z,14.06
2023-03-01T09:46:04.539Z,14.03
2023-03-01T09:47:04.545Z,14.10
2023-03-01T09:48:04.490Z,14.12
2023-03-01T09:49:04.493Z,14.07
2023-03-01T09:50:04.481Z,14.12
2023-03-01T09:51:04.467Z,14.06
2023-03-01T09:52:04.468Z,14.09
2023-03-01T09:53:04.471Z,14.09
2023-03-01T09:54:04.469Z,14.09
2023-03-01T09:55:04.472Z,14.12
2023-03-01T09:56:04.439Z,14.06
2023-03-01T09:57:04.444Z,14.06
2023-03-01T09:58:04.443Z,14.02
2023-03-01T09:59:04.435Z,14.02
2023-03-01T10:00:04.414Z,14.02
2023-03-01T10:01:04.436Z,14.03
2023-03-01T10:02:04.410Z,14.04
2023-03-01T10:03:04.464Z,14.07
2023-03-01T10:04:04.424Z,14.07
2023-03-01T10:05:04.415Z,14.04
2023-03-01T10:06:04.383Z,14.03
2023-03-01T10:07:04.380Z,14.00
2023-03-01T10:08:04.361Z,14.03
2023-03-01T10:09:04.367Z,14.06
2023-03-01T10:10:04.353Z,14.04
2023-03-01T10:11:04.360Z,14.04
2023-03-01T10:12:04.345Z,14.00
2023-03-01T10:13:04.343Z,14.00
2023-03-01T10:14:04.333Z,14.00
2023-03-01T10:15:04.325Z,14.02
2023-03-01T10:16:04.365Z,13.96
2023-03-01T10:17:04.318Z,13.99
2023-03-01T10:18:04.320Z,14.00
2023-03-01T10:19:04.314Z,14.03
2023-03-01T10:20:04.293Z,14.00
2023-03-01T10:21:04.293Z,13.97
2023-03-01T10:22:04.278Z,14.00
2023-03-01T10:23:04.280Z,13.95
2023-03-01T10:24:04.259Z,13.92
2023-03-01T10:25:04.283Z,13.96
2023-03-01T10:26:04.254Z,13.99
2023-03-01T10:27:04.266Z,14.00
2023-03-01T10:28:04.256Z,13.96
2023-03-01T10:29:04.243Z,13.99
2023-03-01T10:30:04.254Z,13.96
2023-03-01T10:31:04.247Z,14.00
2023-03-01T10:32:04.269Z,13.96
2023-03-01T10:33:04.240Z,13.95
2023-03-01T10:34:04.206Z,13.95
2023-03-01T10:35:04.312Z,13.96
2023-03-01T10:36:04.230Z,13.95
2023-03-01T10:37:04.179Z,13.96
2023-03-01T10:38:04.172Z,13.95
2023-03-01T10:39:04.177Z,13.99
2023-03-01T10:40:04.180Z,13.91
2023-03-01T10:41:04.162Z,13.91
2023-03-01T10:42:04.146Z,13.97
2023-03-01T10:43:04.160Z,13.91
2023-03-01T10:44:04.136Z,13.91
2023-03-01T10:45:04.121Z,13.95
2023-03-01T10:46:04.177Z,13.92
2023-03-01T10:47:04.143Z,13.92
2023-03-01T10:48:04.103Z,13.91
2023-03-01T10:49:04.111Z,13.85
2023-03-01T10:50:04.118Z,13.85
2023-03-01T10:51:04.106Z,13.92
2023-03-01T10:52:04.086Z,13.97
2023-03-01T10:53:04.086Z,13.96
2023-03-01T10:54:04.078Z,13.88
2023-03-01T10:55:04.093Z,13.97
2023-03-01T10:56:04.050Z,13.91
2023-03-01T10:57:04.072Z,13.97
2023-03-01T10:58:04.048Z,13.97
2023-03-01T10:59:04.088Z,13.92
2023-03-01T11:00:04.058Z,13.99
2023-03-01T11:01:04.035Z,14.00
2023-03-01T11:02:12.086Z,13.95
2023-03-01T11:03:04.017Z,13.92
2023-03-01T11:04:04.025Z,13.99
2023-03-01T11:05:04.130Z,13.92
2023-03-01T11:06:03.992Z,13.91
2023-03-01T11:07:04.004Z,13.99
2023-03-01T11:08:03.977Z,13.97
2023-03-01T11:09:03.986Z,13.95
2023-03-01T11:10:03.974Z,13.99
2023-03-01T11:11:03.961Z,13.91
2023-03-01T11:12:03.944Z,13.91
2023-03-01T11:13:03.943Z,13.99
2023-03-01T11:14:06.560Z,13.95
2023-03-01T11:15:03.952Z,13.91
2023-03-01T11:16:04.002Z,13.92
2023-03-01T11:17:03.946Z,14.03
2023-03-01T11:18:13.924Z,14.00
2023-03-01T11:19:03.931Z,13.96
2023-03-01T11:20:03.910Z,13.96
2023-03-01T11:21:03.892Z,13.99
2023-03-01T11:22:04.004Z,13.91
2023-03-01T11:23:03.904Z,13.96
2023-03-01T11:24:03.875Z,13.97
2023-03-01T11:25:10.427Z,13.95
2023-03-01T11:26:03.880Z,13.95
2023-03-01T11:27:03.863Z,13.96
2023-03-01T11:28:03.900Z,13.91
2023-03-01T11:29:03.836Z,13.96
2023-03-01T11:30:03.850Z,14.03
2023-03-01T11:31:08.522Z,14.02
2023-03-01T11:32:03.954Z,13.97
2023-03-01T11:33:03.853Z,13.99
2023-03-01T11:34:03.828Z,14.00
2023-03-01T11:35:03.807Z,13.97
2023-03-01T11:36:03.820Z,13.97
2023-03-01T11:37:03.800Z,14.03
2023-03-01T11:38:03.786Z,14.00
2023-03-01T11:39:03.797Z,13.97
2023-03-01T11:40:03.781Z,14.06
2023-03-01T11:41:03.757Z,14.04
2023-03-01T11:42:16.893Z,14.02
2023-03-01T11:43:03.828Z,14.04
2023-03-01T11:44:03.839Z,13.99
2023-03-01T11:45:03.741Z,13.97
2023-03-01T11:46:03.740Z,14.02
2023-03-01T11:47:03.825Z,13.99
2023-03-01T11:48:03.721Z,14.03
2023-03-01T11:49:03.707Z,14.06
2023-03-01T11:50:03.707Z,13.97
2023-03-01T11:51:03.688Z,13.97
2023-03-01T11:52:03.708Z,14.00
2023-03-01T11:53:03.681Z,13.97
2023-03-01T11:54:03.799Z,14.03
2023-03-01T11:55:03.712Z,13.96
2023-03-01T11:56:03.663Z,13.97
2023-03-01T11:57:03.689Z,13.95
2023-03-01T11:58:03.653Z,13.97
2023-03-01T11:59:03.636Z,13.92
2023-03-01T12:00:03.634Z,14.04
2023-03-01T12:01:03.639Z,14.06
2023-03-01T12:02:03.687Z,14.04
2023-03-01T12:03:03.629Z,14.00
2023-03-01T12:04:03.728Z,14.06
2023-03-01T12:05:03.613Z,14.00
2023-03-01T12:06:03.609Z,14.07
2023-03-01T12:07:03.617Z,14.02
2023-03-01T12:08:03.587Z,13.99
2023-03-01T12:09:03.597Z,14.00
2023-03-01T12:10:03.603Z,14.03
2023-03-01T12:11:03.611Z,14.10
2023-03-01T12:12:03.568Z,13.96
2023-03-01T12:13:03.574Z,13.99
2023-03-01T12:14:03.734Z,14.04
2023-03-01T12:15:03.545Z,13.99
2023-03-01T12:16:03.663Z,14.02
2023-03-01T12:17:03.636Z,14.04
2023-03-01T12:18:03.531Z,14.07
2023-03-01T12:19:03.523Z,14.06
2023-03-01T12:20:03.513Z,14.03
2023-03-01T12:21:03.545Z,14.03
2023-03-01T12:22:03.496Z,14.03
2023-03-01T12:23:14.588Z,13.96
2023-03-01T12:24:03.662Z,14.04
2023-03-01T12:25:03.498Z,14.04
2023-03-01T12:26:03.492Z,14.09
2023-03-01T12:27:03.486Z,14.06
2023-03-01T12:28:03.491Z,14.03
2023-03-01T12:29:03.485Z,14.00
2023-03-01T12:30:03.455Z,14.09
2023-03-01T12:31:03.457Z,14.07
2023-03-01T12:32:03.590Z,14.12
2023-03-01T12:33:03.441Z,14.09
2023-03-01T12:34:03.597Z,14.06
2023-03-01T12:35:03.410Z,14.09
2023-03-01T12:36:03.476Z,14.09
2023-03-01T12:37:03.409Z,14.12
2023-03-01T12:38:03.410Z,14.04
2023-03-01T12:39:03.408Z,14.10
2023-03-01T12:40:03.384Z,14.09
2023-03-01T12:41:03.369Z,14.12
2023-03-01T12:42:03.374Z,14.07
2023-03-01T12:43:03.393Z,14.15
2023-03-01T12:44:03.363Z,14.12
2023-03-01T12:45:03.346Z,14.09
2023-03-01T12:46:03.371Z,14.12
2023-03-01T12:47:03.357Z,14.06
2023-03-01T12:48:03.372Z,14.02
2023-03-01T12:49:03.338Z,14.09
2023-03-01T12:50:03.321Z,14.17
2023-03-01T12:51:03.311Z,14.12
2023-03-01T12:52:03.324Z,14.09
2023-03-01T12:53:03.312Z,14.14
2023-03-01T12:54:03.294Z,14.12
2023-03-01T12:55:03.296Z,14.14